Airfield :
LOGIN :

Register | Disclaimer

   EN    FR    IT 

 










Legend :    VFR   Marginal VFR   IFR   Intensive IFR   Very Intensive IFR
Visi :
Ceiling :
>= 8 km
>= 3000ft
5 to 8 km
1000 to 3000 ft
1500m to 5 km
500 to 1000 ft
800 to 1500m
200 to 500 ft
< 800m
< 200 ft
Symbols :   Thunderstorms  Fog  Heavy snow  Heavy precipitations  Wind > 20 kt
SIGMETs :     Misc.  Thunderstorms  Icing  Turbulence  Mountain Waves  Volcanic Ashes






- Airport Elevation : 267 ft


EGDR - Culdrose Navy

CURRENT METAR :
  • 021425Z 08018G28KT 3000 HZ FEW004 BKN006 08/06 Q1025 TEMPO 2000 BR SCT004 RMK YLO1 TEMPO YLO2

EXPIRED METARs :
  • 021404Z 08018G28KT 3000 HZ FEW004 OVC006 08/06 Q1025 TEMPO 2000 BR SCT004 RMK YLO1 TEMPO YLO2
  • 021350Z AUTO 08022KT 4200 // OVC006/// 08/06 Q1025
  • 021326Z 08018G30KT 3000 HZ FEW004 OVC005 08/06 Q1025 TEMPO 2000 BR SCT004 RMK YLO1 TEMPO YLO2
  • 021250Z 08017KT 3000 HZ FEW004 OVC005 07/06 Q1026 TEMPO 2000 BR SCT004 RMK YLO1 TEMPO YLO2
  • 021224Z 07017G27KT 3000 HZ FEW004 OVC005 08/06 Q1026 TEMPO 2000 BR SCT004 RMK YLO1 TEMPO YLO2
  • 021150Z 08017G27KT 3000 HZ FEW004 OVC005 07/06 Q1026 TEMPO 2000 BR SCT004 RMK YLO1 TEMPO YLO2

TAF TAF EGDR
Valid from the 02 at 15:00 until the 03 at 00:00 UTC


021352Z 0215/0224 09022G32KT 3000 HZ BKN006
TEMPO 0215/0224 2000 BR SCT003 BKN005
PROB40
TEMPO 0220/0224 1500 SHRA BR BKN002 BKN018TCU
PROB30
TEMPO 0223/0224 0800 +SHRA FG BKN000 BKN015CB



MET'MAP, your aeronautical weather chart ! - Copyright ORBIFLY December 2007 - Disclaimer

ORBIFLY MET'MAP TEAM :

Programming & Development : Alexandra Zaïnal
Concept & original design : Baudouin d'Aumeries
Assistance for programming : Marc-Olivier Méhu
Technical & hardware support : Manuel Goepfert

Contact : metmap@orbifly.com




SOURCES & CREDITS :

   NOAA